Time;durP1;ratioP1;P1;durP2;ratioP2;P2;SDS_P1;SDS_P2;PMS_P1;PMS_P2;Temp;Humidity;BMP_temperature;BMP_pressure;BME280_temperature;BME280_humidity;BME280_pressure;Samples;Min_cycle;Max_cycle;Signal;HPM_P1;HPM_P2
2021/08/20 00:01:03;;;;;;;;;;;14.40;99.90;;;;;;4938591;29;20397;-84
2021/08/20 00:03:29;;;;;;;;;;;14.30;99.90;;;;;;4936945;29;20386;-84
2021/08/20 00:05:54;;;;;;;;;;;14.20;99.90;;;;;;4932577;29;19915;-83
2021/08/20 00:08:20;;;;;;;;;;;14.20;99.90;;;;;;4933525;29;19933;-84
2021/08/20 00:10:45;;;;;;;;;;;14.30;99.90;;;;;;4943288;29;20016;-83
2021/08/20 00:13:11;;;;;;;;;;;14.40;99.90;;;;;;4940040;29;20448;-85
2021/08/20 00:15:36;;;;;;;;;;;14.50;99.90;;;;;;4936376;29;19918;-84
2021/08/20 00:18:02;;;;;;;;;;;14.60;99.90;;;;;;4933781;29;20274;-83
2021/08/20 00:20:28;;;;;;;;;;;14.80;99.90;;;;;;4937052;29;20044;-83
2021/08/20 00:22:53;;;;;;;;;;;14.80;99.90;;;;;;4937536;29;20041;-84
2021/08/20 00:25:19;;;;;;;;;;;14.80;99.90;;;;;;4931404;29;20332;-84
2021/08/20 00:27:44;;;;;;;;;;;14.90;99.90;;;;;;4941175;29;19925;-84
2021/08/20 00:30:10;;;;;;;;;;;14.90;99.90;;;;;;4940452;29;20004;-83
2021/08/20 00:32:36;;;;;;;;;;;14.80;99.90;;;;;;4930976;29;19965;-83
2021/08/20 00:35:02;;;;;;;;;;;14.80;99.90;;;;;;4931244;29;20004;-83
2021/08/20 00:37:28;;;;;;;;;;;14.80;99.90;;;;;;4935347;29;20036;-83
2021/08/20 00:39:54;;;;;;;;;;;14.60;99.90;;;;;;4930893;29;19925;-84
2021/08/20 00:42:19;;;;;;;;;;;14.60;99.90;;;;;;4928963;29;19919;-83
2021/08/20 00:44:45;;;;;;;;;;;14.50;99.90;;;;;;4937541;29;20333;-84
2021/08/20 00:47:10;;;;;;;;;;;14.30;99.90;;;;;;4935037;29;20555;-84
2021/08/20 00:49:36;;;;;;;;;;;14.10;99.90;;;;;;4915066;29;20746;-84
2021/08/20 00:52:02;;;;;;;;;;;14.10;99.90;;;;;;4913751;29;20373;-84
2021/08/20 00:54:27;;;;;;;;;;;14.10;99.90;;;;;;4937581;29;20054;-84
2021/08/20 00:56:53;;;;;;;;;;;14.10;99.90;;;;;;4940069;29;19926;-84
2021/08/20 00:59:18;;;;;;;;;;;14.00;99.90;;;;;;4944663;29;20001;-84
2021/08/20 01:01:44;;;;;;;;;;;13.90;99.90;;;;;;4943942;28;19914;-84
2021/08/20 01:04:10;;;;;;;;;;;14.10;99.90;;;;;;4944661;28;19921;-84
2021/08/20 01:06:40;;;;;;;;;;;14.10;99.90;;;;;;4952251;28;19922;-84
2021/08/20 01:09:06;;;;;;;;;;;14.20;99.90;;;;;;4944833;29;19937;-83
2021/08/20 01:11:31;;;;;;;;;;;14.20;99.90;;;;;;4944269;28;20385;-84
2021/08/20 01:13:57;;;;;;;;;;;14.10;99.90;;;;;;4945874;29;19945;-84
2021/08/20 01:16:22;;;;;;;;;;;14.00;99.90;;;;;;4945386;29;19997;-83
2021/08/20 01:18:48;;;;;;;;;;;14.10;99.90;;;;;;4945255;28;20017;-83
2021/08/20 01:21:15;;;;;;;;;;;14.00;99.90;;;;;;4944290;29;19933;-84
2021/08/20 01:23:42;;;;;;;;;;;14.20;99.90;;;;;;4944159;29;19922;-84
2021/08/20 01:26:08;;;;;;;;;;;14.00;99.90;;;;;;4945130;29;19949;-84
2021/08/20 01:28:33;;;;;;;;;;;13.90;99.90;;;;;;4944828;29;19965;-84
2021/08/20 01:31:00;;;;;;;;;;;14.00;99.90;;;;;;4930700;29;19914;-84
2021/08/20 01:33:26;;;;;;;;;;;13.90;99.90;;;;;;4942649;29;19914;-83
2021/08/20 01:35:51;;;;;;;;;;;13.80;99.90;;;;;;4944351;29;19921;-84
2021/08/20 01:38:17;;;;;;;;;;;13.80;99.90;;;;;;4944498;29;19919;-83
2021/08/20 01:40:42;;;;;;;;;;;13.90;99.90;;;;;;4944995;29;19922;-84
2021/08/20 01:43:08;;;;;;;;;;;13.70;99.90;;;;;;4943589;29;20308;-82
2021/08/20 01:45:33;;;;;;;;;;;13.70;99.90;;;;;;4943829;29;19926;-83
2021/08/20 01:47:59;;;;;;;;;;;13.60;99.90;;;;;;4943930;29;20396;-84
2021/08/20 01:50:24;;;;;;;;;;;13.60;99.90;;;;;;4943811;29;20040;-83
2021/08/20 01:52:50;;;;;;;;;;;13.50;99.90;;;;;;4945478;29;20472;-84
2021/08/20 01:55:15;;;;;;;;;;;13.60;99.90;;;;;;4944946;29;20022;-84
2021/08/20 01:57:41;;;;;;;;;;;13.60;99.90;;;;;;4939437;29;21681;-83
2021/08/20 02:00:07;;;;;;;;;;;13.60;99.90;;;;;;4931840;29;19914;-83
2021/08/20 02:02:33;;;;;;;;;;;13.60;99.90;;;;;;4931033;29;19921;-83
2021/08/20 02:04:58;;;;;;;;;;;13.50;99.90;;;;;;4929602;29;19918;-85
2021/08/20 02:07:24;;;;;;;;;;;13.50;99.90;;;;;;4939981;29;19978;-84
2021/08/20 02:09:50;;;;;;;;;;;13.60;99.90;;;;;;4937305;29;19911;-84
2021/08/20 02:12:16;;;;;;;;;;;13.60;99.90;;;;;;4934092;29;19915;-83
2021/08/20 02:14:41;;;;;;;;;;;13.60;99.90;;;;;;4930329;29;20447;-83
2021/08/20 02:17:07;;;;;;;;;;;13.60;99.90;;;;;;4932411;29;19914;-84
2021/08/20 02:19:33;;;;;;;;;;;13.50;99.90;;;;;;4938149;29;20320;-84
2021/08/20 02:21:58;;;;;;;;;;;13.40;99.90;;;;;;4932450;29;20317;-83
2021/08/20 02:24:24;;;;;;;;;;;13.30;99.90;;;;;;4933939;29;19922;-84
2021/08/20 02:26:49;;;;;;;;;;;13.20;99.90;;;;;;4935016;29;19926;-83
2021/08/20 02:29:15;;;;;;;;;;;13.30;1.00;;;;;;4935149;29;19915;-84
2021/08/20 02:31:40;;;;;;;;;;;13.20;1.00;;;;;;4939967;29;20388;-84
2021/08/20 02:34:06;;;;;;;;;;;13.30;1.00;;;;;;4936134;29;20049;-84
2021/08/20 02:36:31;;;;;;;;;;;13.20;1.00;;;;;;4930562;29;19973;-83
2021/08/20 02:38:57;;;;;;;;;;;13.30;1.00;;;;;;4933160;29;20407;-83
2021/08/20 02:41:24;;;;;;;;;;;13.30;1.00;;;;;;4934207;29;19921;-83
2021/08/20 02:43:50;;;;;;;;;;;13.40;1.00;;;;;;4925091;29;20415;-82
2021/08/20 02:46:15;;;;;;;;;;;13.30;1.00;;;;;;4934510;29;19996;-83
2021/08/20 02:48:42;;;;;;;;;;;13.40;1.00;;;;;;4930872;29;20005;-83
2021/08/20 02:51:08;;;;;;;;;;;13.40;1.00;;;;;;4934942;29;20293;-83
2021/08/20 02:53:34;;;;;;;;;;;13.40;1.00;;;;;;4928971;29;19918;-83
2021/08/20 02:55:59;;;;;;;;;;;13.30;1.00;;;;;;4935992;29;20396;-83
2021/08/20 02:58:25;;;;;;;;;;;13.20;1.00;;;;;;4945244;28;20452;-83
2021/08/20 03:00:50;;;;;;;;;;;13.20;1.00;;;;;;4949419;28;19914;-83
2021/08/20 03:03:16;;;;;;;;;;;13.20;1.00;;;;;;4950286;28;19914;-83
2021/08/20 03:05:41;;;;;;;;;;;13.20;1.00;;;;;;4938124;29;19914;-84
2021/08/20 03:08:07;;;;;;;;;;;13.20;19.50;;;;;;4944117;28;20021;-83
2021/08/20 03:10:33;;;;;;;;;;;13.20;37.60;;;;;;4954380;28;19921;-84
2021/08/20 03:12:58;;;;;;;;;;;13.20;91.90;;;;;;4951891;28;20004;-83
2021/08/20 03:15:24;;;;;;;;;;;13.20;99.90;;;;;;4945976;28;19953;-83
2021/08/20 03:17:49;;;;;;;;;;;13.20;99.90;;;;;;4941455;28;19914;-84
2021/08/20 03:20:15;;;;;;;;;;;13.20;99.90;;;;;;4949368;28;19914;-83
2021/08/20 03:22:40;;;;;;;;;;;13.20;99.90;;;;;;4933616;29;19918;-83
2021/08/20 03:25:06;;;;;;;;;;;13.20;99.90;;;;;;4948843;28;20015;-83
2021/08/20 03:27:31;;;;;;;;;;;13.20;1.00;;;;;;4951389;28;20436;-83
2021/08/20 03:29:57;;;;;;;;;;;13.20;42.90;;;;;;4955823;28;19915;-83
2021/08/20 03:32:23;;;;;;;;;;;13.20;94.80;;;;;;4947302;28;19914;-83
2021/08/20 03:34:50;;;;;;;;;;;13.20;99.90;;;;;;4953716;28;19918;-83
2021/08/20 03:37:15;;;;;;;;;;;13.20;99.90;;;;;;4952042;28;19961;-84
2021/08/20 03:39:41;;;;;;;;;;;13.20;1.00;;;;;;4948591;28;19918;-84
2021/08/20 03:42:06;;;;;;;;;;;13.20;1.00;;;;;;4945482;28;19950;-83
2021/08/20 03:44:32;;;;;;;;;;;13.30;14.80;;;;;;4954792;28;20397;-83
2021/08/20 03:46:58;;;;;;;;;;;13.30;75.30;;;;;;4947762;28;20241;-83
2021/08/20 03:49:23;;;;;;;;;;;13.40;99.90;;;;;;4950376;28;20635;-82
2021/08/20 03:51:49;;;;;;;;;;;13.40;99.90;;;;;;4950429;28;19961;-84
2021/08/20 03:54:14;;;;;;;;;;;13.30;99.90;;;;;;4948713;28;19968;-84
2021/08/20 03:56:40;;;;;;;;;;;13.30;99.90;;;;;;4947406;28;19922;-84
2021/08/20 03:59:05;;;;;;;;;;;13.40;99.90;;;;;;4941301;29;19948;-83
2021/08/20 04:01:31;;;;;;;;;;;13.30;1.00;;;;;;4948276;29;19929;-84
2021/08/20 04:03:57;;;;;;;;;;;13.30;13.60;;;;;;4946711;28;19914;-83
2021/08/20 04:06:22;;;;;;;;;;;13.40;64.00;;;;;;4946812;28;19914;-83
2021/08/20 04:08:48;;;;;;;;;;;13.40;99.90;;;;;;4944229;29;19924;-83
2021/08/20 04:11:13;;;;;;;;;;;13.40;99.90;;;;;;4943964;28;19910;-82
2021/08/20 04:13:39;;;;;;;;;;;13.40;1.00;;;;;;4946738;28;19936;-84
2021/08/20 04:16:05;;;;;;;;;;;13.30;99.90;;;;;;4949067;28;19919;-84
2021/08/20 04:18:31;;;;;;;;;;;13.50;21.60;;;;;;4946260;28;20738;-84
2021/08/20 04:20:56;;;;;;;;;;;13.40;99.90;;;;;;4946763;29;20706;-84
2021/08/20 04:23:22;;;;;;;;;;;13.50;99.90;;;;;;4945029;28;19918;-84
2021/08/20 04:25:47;;;;;;;;;;;13.50;1.00;;;;;;4940500;29;19914;-84
2021/08/20 04:28:13;;;;;;;;;;;13.60;64.30;;;;;;4945663;29;19945;-83
2021/08/20 04:30:38;;;;;;;;;;;13.50;99.90;;;;;;4947236;28;19914;-83
2021/08/20 04:33:04;;;;;;;;;;;13.40;99.90;;;;;;4946949;29;19918;-83
2021/08/20 04:35:30;;;;;;;;;;;13.40;99.90;;;;;;4946285;28;20000;-83
2021/08/20 04:37:56;;;;;;;;;;;13.50;99.90;;;;;;4946363;29;19929;-84
2021/08/20 04:40:22;;;;;;;;;;;13.50;99.90;;;;;;4946075;29;19915;-84
2021/08/20 04:42:48;;;;;;;;;;;13.50;99.90;;;;;;4943266;29;20001;-84
2021/08/20 04:45:15;;;;;;;;;;;13.40;1.00;;;;;;4944330;28;20395;-83
2021/08/20 04:47:44;;;;;;;;;;;13.50;48.10;;;;;;4944190;29;20390;-83
2021/08/20 04:50:10;;;;;;;;;;;13.70;99.90;;;;;;4944680;29;20400;-84
2021/08/20 04:52:36;;;;;;;;;;;13.60;99.90;;;;;;4953969;28;19914;-85
2021/08/20 04:55:01;;;;;;;;;;;13.50;30.60;;;;;;4954580;28;20434;-84
2021/08/20 04:57:27;;;;;;;;;;;13.60;40.00;;;;;;4958266;28;19922;-85
2021/08/20 04:59:53;;;;;;;;;;;13.50;36.40;;;;;;4946233;29;19914;-84
2021/08/20 05:02:18;;;;;;;;;;;13.70;99.90;;;;;;4954188;28;20624;-85
2021/08/20 05:04:45;;;;;;;;;;;13.70;99.90;;;;;;4943868;29;19918;-84
2021/08/20 05:07:11;;;;;;;;;;;13.60;19.30;;;;;;4943353;29;19937;-84
2021/08/20 05:09:36;;;;;;;;;;;13.70;57.70;;;;;;4945736;28;20318;-84
2021/08/20 05:12:03;;;;;;;;;;;13.70;99.90;;;;;;4940889;29;19914;-84
2021/08/20 05:14:28;;;;;;;;;;;13.80;83.40;;;;;;4943373;28;20351;-83
2021/08/20 05:16:54;;;;;;;;;;;13.60;92.80;;;;;;4944821;28;20394;-83
2021/08/20 05:19:19;;;;;;;;;;;13.50;90.90;;;;;;4941866;29;19926;-84
2021/08/20 05:21:45;;;;;;;;;;;13.70;99.90;;;;;;4947028;28;19946;-84
2021/08/20 05:24:10;;;;;;;;;;;13.50;99.90;;;;;;4942683;28;19914;-84
2021/08/20 05:26:36;;;;;;;;;;;13.40;99.90;;;;;;4945502;29;20009;-85
2021/08/20 05:29:01;;;;;;;;;;;13.60;1.00;;;;;;4962112;28;19958;-86
2021/08/20 05:31:27;;;;;;;;;;;13.60;1.00;;;;;;4959209;28;19942;-84
2021/08/20 05:33:52;;;;;;;;;;;13.60;45.20;;;;;;4950538;28;20550;-85
2021/08/20 05:36:18;;;;;;;;;;;13.60;99.90;;;;;;4948710;28;19961;-84
2021/08/20 05:38:44;;;;;;;;;;;13.60;99.90;;;;;;4959800;28;19914;-83
2021/08/20 05:41:09;;;;;;;;;;;13.60;1.00;;;;;;4962126;28;19917;-83
2021/08/20 05:43:35;;;;;;;;;;;13.40;99.90;;;;;;4938178;29;19914;-82
2021/08/20 05:46:01;;;;;;;;;;;13.50;1.00;;;;;;4955203;28;19969;-85
2021/08/20 05:48:26;;;;;;;;;;;13.40;92.20;;;;;;4959456;28;20764;-84
2021/08/20 05:50:52;;;;;;;;;;;13.50;99.90;;;;;;4958708;28;20478;-84
2021/08/20 05:53:17;;;;;;;;;;;13.50;99.90;;;;;;4961654;28;19964;-84
2021/08/20 05:55:43;;;;;;;;;;;13.80;99.90;;;;;;4956606;28;19918;-85
2021/08/20 05:58:08;;;;;;;;;;;14.00;1.00;;;;;;4954637;28;19925;-86
2021/08/20 06:00:34;;;;;;;;;;;13.70;1.00;;;;;;4956935;28;19913;-85
2021/08/20 06:03:00;;;;;;;;;;;13.90;92.20;;;;;;4957311;28;19914;-86
2021/08/20 06:05:25;;;;;;;;;;;13.90;99.90;;;;;;4961407;28;20361;-84
2021/08/20 06:07:51;;;;;;;;;;;14.00;99.90;;;;;;4944812;29;19922;-86
2021/08/20 06:10:18;;;;;;;;;;;13.90;99.90;;;;;;4937030;28;19937;-86
2021/08/20 06:12:43;;;;;;;;;;;14.30;99.90;;;;;;4944508;28;19918;-87
2021/08/20 06:15:09;;;;;;;;;;;14.00;99.90;;;;;;4928425;28;19919;-86
2021/08/20 06:17:34;;;;;;;;;;;14.00;99.90;;;;;;4955234;28;20017;-86
2021/08/20 06:20:00;;;;;;;;;;;14.00;67.70;;;;;;4955413;28;20741;-86
2021/08/20 06:22:26;;;;;;;;;;;14.00;69.00;;;;;;4945316;29;19915;-86
2021/08/20 06:24:51;;;;;;;;;;;14.10;1.00;;;;;;4944925;29;19914;-85
2021/08/20 06:27:17;;;;;;;;;;;13.90;1.00;;;;;;4946355;28;19922;-86
2021/08/20 06:29:42;;;;;;;;;;;13.80;1.00;;;;;;4958784;28;20275;-85
2021/08/20 06:32:08;;;;;;;;;;;13.90;99.90;;;;;;4960784;28;19992;-85
2021/08/20 06:34:33;;;;;;;;;;;14.30;99.90;;;;;;4943759;29;19937;-85
2021/08/20 06:36:59;;;;;;;;;;;14.20;1.00;;;;;;4944525;29;19914;-85
2021/08/20 06:39:25;;;;;;;;;;;14.30;1.00;;;;;;4942047;29;20360;-83
2021/08/20 06:41:50;;;;;;;;;;;14.40;1.00;;;;;;4944308;28;19922;-84
2021/08/20 06:44:16;;;;;;;;;;;14.60;99.90;;;;;;4944907;29;19918;-85
2021/08/20 06:46:41;;;;;;;;;;;14.60;99.90;;;;;;4948065;28;19934;-84
2021/08/20 06:49:08;;;;;;;;;;;14.60;99.90;;;;;;4944225;29;19914;-85
2021/08/20 06:51:33;;;;;;;;;;;14.60;99.90;;;;;;4949394;28;19913;-84
2021/08/20 06:53:59;;;;;;;;;;;14.70;99.90;;;;;;4956657;28;19925;-84
2021/08/20 06:56:24;;;;;;;;;;;15.00;99.90;;;;;;4960333;28;20001;-85
2021/08/20 06:58:50;;;;;;;;;;;15.40;99.90;;;;;;4960664;28;20447;-84
2021/08/20 07:01:16;;;;;;;;;;;15.10;99.90;;;;;;4960039;28;20097;-85
2021/08/20 07:03:42;;;;;;;;;;;15.10;99.90;;;;;;4953896;28;19964;-84
2021/08/20 07:06:07;;;;;;;;;;;15.70;99.90;;;;;;4959719;28;19946;-84
2021/08/20 07:08:33;;;;;;;;;;;16.10;99.90;;;;;;4963406;28;19922;-85
2021/08/20 07:10:58;;;;;;;;;;;15.90;99.90;;;;;;4956693;28;19945;-85
2021/08/20 07:13:24;;;;;;;;;;;15.90;99.90;;;;;;4947577;29;20426;-86
2021/08/20 07:15:49;;;;;;;;;;;16.20;99.90;;;;;;4946314;29;19929;-85
2021/08/20 07:18:15;;;;;;;;;;;17.10;99.90;;;;;;4946668;29;19918;-85
2021/08/20 07:20:41;;;;;;;;;;;16.80;99.90;;;;;;4946058;29;20013;-84
2021/08/20 07:23:07;;;;;;;;;;;16.90;99.90;;;;;;4947763;29;19997;-85
2021/08/20 07:25:32;;;;;;;;;;;16.60;99.90;;;;;;4948492;29;19910;-84
2021/08/20 07:27:58;;;;;;;;;;;18.00;99.90;;;;;;4946866;29;20407;-84
2021/08/20 07:30:24;;;;;;;;;;;17.10;99.90;;;;;;4947894;29;19914;-86
2021/08/20 07:32:49;;;;;;;;;;;17.50;99.90;;;;;;4948975;29;20001;-84
2021/08/20 07:35:15;;;;;;;;;;;17.70;99.90;;;;;;4964492;28;20000;-84
2021/08/20 07:37:41;;;;;;;;;;;18.10;99.90;;;;;;4945785;28;19916;-84
2021/08/20 07:40:07;;;;;;;;;;;17.00;99.90;;;;;;4959309;28;19914;-85
2021/08/20 07:42:32;;;;;;;;;;;16.90;99.90;;;;;;4959680;28;19964;-85
2021/08/20 07:44:58;;;;;;;;;;;17.50;99.90;;;;;;4960550;28;19918;-85
2021/08/20 07:47:24;;;;;;;;;;;18.10;99.90;;;;;;4964290;28;19922;-85
2021/08/20 07:49:50;;;;;;;;;;;18.30;99.90;;;;;;4949749;29;19914;-85
2021/08/20 07:52:15;;;;;;;;;;;18.80;99.90;;;;;;4958310;28;19914;-85
2021/08/20 07:54:41;;;;;;;;;;;19.40;99.90;;;;;;4959234;28;19914;-85
2021/08/20 07:57:06;;;;;;;;;;;19.50;99.90;;;;;;4959148;28;19926;-83
2021/08/20 07:59:32;;;;;;;;;;;21.40;99.90;;;;;;4946382;29;20388;-83
2021/08/20 08:01:57;;;;;;;;;;;20.40;99.90;;;;;;4964461;28;20631;-83
2021/08/20 08:04:23;;;;;;;;;;;19.60;99.90;;;;;;4959136;28;19914;-83
2021/08/20 08:06:48;;;;;;;;;;;20.10;99.90;;;;;;4959038;28;19918;-84
2021/08/20 08:09:14;;;;;;;;;;;24.10;99.90;;;;;;4954134;28;19915;-83
2021/08/20 08:11:39;;;;;;;;;;;27.60;99.90;;;;;;4961026;28;19918;-84
2021/08/20 08:14:08;;;;;;;;;;;28.80;99.90;;;;;;4948002;28;20385;-83
2021/08/20 08:16:35;;;;;;;;;;;32.20;99.90;;;;;;4960215;28;19957;-83
2021/08/20 08:19:01;;;;;;;;;;;32.10;99.90;;;;;;4941413;28;19917;-83
2021/08/20 08:21:26;;;;;;;;;;;33.70;98.40;;;;;;4958549;28;19914;-84
2021/08/20 08:23:52;;;;;;;;;;;35.00;94.30;;;;;;4959818;28;20332;-84
2021/08/20 08:26:17;;;;;;;;;;;34.30;92.20;;;;;;4963520;28;20387;-83
2021/08/20 08:28:43;;;;;;;;;;;35.20;87.00;;;;;;4961965;28;20728;-83
2021/08/20 08:31:08;;;;;;;;;;;34.30;82.80;;;;;;4958333;28;20384;-83
2021/08/20 08:33:34;;;;;;;;;;;35.70;79.50;;;;;;4958311;28;20024;-83
2021/08/20 08:36:00;;;;;;;;;;;35.20;74.00;;;;;;4959076;28;19910;-83
2021/08/20 08:38:26;;;;;;;;;;;35.50;79.80;;;;;;4946417;29;19936;-85
2021/08/20 08:40:52;;;;;;;;;;;36.60;75.50;;;;;;4962391;28;20675;-84
2021/08/20 08:43:18;;;;;;;;;;;34.90;66.00;;;;;;4957727;28;19914;-86
2021/08/20 08:45:44;;;;;;;;;;;35.80;64.70;;;;;;4952227;28;19921;-86
2021/08/20 08:48:10;;;;;;;;;;;37.30;59.30;;;;;;4947185;29;19926;-86
2021/08/20 08:50:37;;;;;;;;;;;37.90;56.30;;;;;;4946694;29;19915;-86
2021/08/20 08:53:03;;;;;;;;;;;38.00;52.00;;;;;;4946054;29;20084;-85
2021/08/20 08:55:29;;;;;;;;;;;35.30;64.10;;;;;;4959269;28;20753;-84
2021/08/20 08:57:54;;;;;;;;;;;35.50;68.00;;;;;;4947379;28;19958;-85
2021/08/20 09:00:30;;;;;;;;;;;35.00;60.70;;;;;;4946180;29;20395;-84
2021/08/20 09:02:55;;;;;;;;;;;35.50;59.90;;;;;;4945947;29;19923;-84
2021/08/20 09:05:21;;;;;;;;;;;37.00;55.70;;;;;;4946321;29;19914;-84
2021/08/20 09:07:49;;;;;;;;;;;37.10;53.20;;;;;;4946953;29;19917;-84
2021/08/20 09:10:22;;;;;;;;;;;36.80;51.70;;;;;;4946140;29;19914;-85
2021/08/20 09:12:50;;;;;;;;;;;37.10;49.10;;;;;;4952326;28;19968;-84
2021/08/20 09:15:19;;;;;;;;;;;38.80;47.70;;;;;;4952371;28;19938;-84
2021/08/20 09:17:48;;;;;;;;;;;37.60;41.80;;;;;;4960303;28;19922;-85
2021/08/20 09:20:14;;;;;;;;;;;39.40;44.40;;;;;;4962080;28;19914;-84
2021/08/20 09:22:39;;;;;;;;;;;38.60;36.20;;;;;;4958051;28;19910;-85
2021/08/20 09:25:05;;;;;;;;;;;36.90;37.80;;;;;;4957543;28;20385;-84
2021/08/20 09:27:31;;;;;;;;;;;33.30;51.80;;;;;;4946625;28;20694;-84
2021/08/20 09:30:06;;;;;;;;;;;30.10;59.00;;;;;;4946206;29;19914;-84
2021/08/20 09:32:31;;;;;;;;;;;30.30;66.90;;;;;;4945999;29;19914;-85
2021/08/20 09:34:58;;;;;;;;;;;30.90;58.70;;;;;;4962293;28;19910;-84
2021/08/20 09:37:27;;;;;;;;;;;35.60;53.40;;;;;;4956837;28;19969;-84
2021/08/20 09:40:00;;;;;;;;;;;38.00;43.10;;;;;;4957354;28;20012;-86
2021/08/20 09:42:26;;;;;;;;;;;40.10;32.20;;;;;;4949333;28;19976;-84
2021/08/20 09:45:10;;;;;;;;;;;38.30;34.70;;;;;;4945783;29;19941;-85
2021/08/20 09:47:40;;;;;;;;;;;39.70;35.10;;;;;;4944893;29;20033;-86
2021/08/20 09:50:05;;;;;;;;;;;39.00;29.70;;;;;;4944012;28;19991;-87
2021/08/20 09:52:31;;;;;;;;;;;39.60;26.70;;;;;;4943169;29;19914;-86
2021/08/20 09:54:57;;;;;;;;;;;39.90;31.20;;;;;;4944847;29;19965;-86
2021/08/20 09:57:24;;;;;;;;;;;40.00;29.20;;;;;;4926926;29;20009;-85
2021/08/20 09:59:50;;;;;;;;;;;40.50;27.90;;;;;;4943619;29;19915;-86
2021/08/20 10:02:18;;;;;;;;;;;39.90;28.10;;;;;;4943102;29;19993;-86
2021/08/20 10:04:44;;;;;;;;;;;38.80;26.50;;;;;;4944466;29;19907;-86
2021/08/20 10:07:11;;;;;;;;;;;39.20;27.80;;;;;;4943967;29;19921;-86
2021/08/20 10:09:37;;;;;;;;;;;39.40;28.70;;;;;;4937221;29;20061;-86
2021/08/20 10:12:04;;;;;;;;;;;38.60;28.50;;;;;;4945514;29;19925;-86
2021/08/20 10:14:31;;;;;;;;;;;38.70;29.00;;;;;;4951422;28;19917;-86
2021/08/20 10:16:56;;;;;;;;;;;39.80;24.50;;;;;;4948143;28;20378;-87
2021/08/20 10:19:22;;;;;;;;;;;38.90;20.50;;;;;;4955561;28;19914;-87
2021/08/20 10:21:48;;;;;;;;;;;39.10;23.90;;;;;;4956968;28;19914;-87
2021/08/20 10:24:14;;;;;;;;;;;39.30;20.60;;;;;;4949821;28;19914;-87
2021/08/20 10:26:49;;;;;;;;;;;37.60;20.60;;;;;;4953937;28;19915;-87
2021/08/20 10:29:19;;;;;;;;;;;37.20;24.90;;;;;;4945607;29;19914;-86
2021/08/20 10:31:44;;;;;;;;;;;37.10;24.40;;;;;;4944593;29;19922;-87
2021/08/20 10:34:29;;;;;;;;;;;37.20;29.10;;;;;;4944960;28;19984;-86
2021/08/20 10:37:03;;;;;;;;;;;37.10;26.90;;;;;;4948403;29;19922;-87
2021/08/20 10:39:29;;;;;;;;;;;37.80;24.90;;;;;;4931004;29;19922;-87
2021/08/20 10:42:08;;;;;;;;;;;38.70;19.90;;;;;;4948289;29;20324;-87
2021/08/20 10:44:37;;;;;;;;;;;38.50;20.30;;;;;;4948629;28;19914;-87
2021/08/20 10:47:03;;;;;;;;;;;38.40;22.40;;;;;;4947266;29;19910;-87
2021/08/20 10:49:35;;;;;;;;;;;37.10;26.20;;;;;;4948667;29;19912;-87
2021/08/20 10:52:01;;;;;;;;;;;35.60;32.60;;;;;;4948449;29;19914;-86
2021/08/20 10:54:42;;;;;;;;;;;34.90;37.20;;;;;;4948097;29;20344;-87
2021/08/20 10:57:10;;;;;;;;;;;32.60;41.40;;;;;;4947872;29;20021;-87
2021/08/20 10:59:46;;;;;;;;;;;30.30;45.00;;;;;;4948078;29;19979;-88
2021/08/20 11:02:21;;;;;;;;;;;28.40;51.50;;;;;;4947997;29;19918;-87
2021/08/20 11:05:01;;;;;;;;;;;28.00;53.60;;;;;;4959310;28;19914;-85
2021/08/20 11:07:39;;;;;;;;;;;27.60;54.00;;;;;;4957914;28;19921;-85
2021/08/20 11:10:07;;;;;;;;;;;28.00;55.00;;;;;;4948689;29;20055;-85
2021/08/20 11:12:44;;;;;;;;;;;27.90;56.90;;;;;;4947699;29;20384;-85
2021/08/20 11:15:22;;;;;;;;;;;27.30;58.10;;;;;;4948608;29;19945;-85
2021/08/20 11:18:01;;;;;;;;;;;27.20;58.90;;;;;;4935058;29;19923;-85
2021/08/20 11:20:36;;;;;;;;;;;27.20;60.90;;;;;;4952293;28;19996;-85
2021/08/20 11:23:07;;;;;;;;;;;27.20;61.60;;;;;;4944340;29;20397;-85
2021/08/20 11:25:39;;;;;;;;;;;27.40;63.60;;;;;;4947270;29;19914;-85
2021/08/20 11:28:04;;;;;;;;;;;27.40;60.60;;;;;;4947588;29;19917;-84
2021/08/20 11:30:31;;;;;;;;;;;27.20;60.40;;;;;;4947232;29;19918;-85
2021/08/20 11:33:06;;;;;;;;;;;27.20;62.00;;;;;;4930204;29;19910;-84
2021/08/20 11:35:32;;;;;;;;;;;26.50;65.70;;;;;;4946810;29;19914;-85
2021/08/20 11:37:57;;;;;;;;;;;26.60;66.40;;;;;;4948203;29;19925;-84
2021/08/20 11:40:23;;;;;;;;;;;26.30;69.50;;;;;;4947197;29;19922;-85
2021/08/20 11:43:05;;;;;;;;;;;26.30;69.00;;;;;;4946604;29;19914;-85
2021/08/20 11:45:31;;;;;;;;;;;26.10;72.00;;;;;;4946051;28;19914;-85
2021/08/20 11:47:59;;;;;;;;;;;26.20;70.60;;;;;;4946477;29;19914;-85
2021/08/20 11:50:26;;;;;;;;;;;25.70;68.80;;;;;;4948562;28;19918;-85
2021/08/20 11:52:51;;;;;;;;;;;25.90;69.70;;;;;;4946861;29;20051;-84
2021/08/20 11:55:18;;;;;;;;;;;26.00;70.90;;;;;;4928881;29;19954;-84
2021/08/20 11:57:43;;;;;;;;;;;26.20;72.30;;;;;;4946133;29;19973;-85
2021/08/20 12:00:09;;;;;;;;;;;25.30;72.20;;;;;;4945821;29;19953;-85
2021/08/20 12:02:35;;;;;;;;;;;25.80;72.10;;;;;;4946689;29;19973;-84
2021/08/20 12:05:14;;;;;;;;;;;25.90;73.70;;;;;;4947813;29;19910;-85
2021/08/20 12:07:40;;;;;;;;;;;25.90;76.80;;;;;;4947311;29;20068;-85
2021/08/20 12:10:06;;;;;;;;;;;26.00;75.70;;;;;;4946441;29;19914;-85
2021/08/20 12:12:33;;;;;;;;;;;26.00;73.90;;;;;;4946888;29;20458;-84
2021/08/20 12:14:59;;;;;;;;;;;25.90;74.40;;;;;;4946578;29;19918;-84
2021/08/20 12:17:28;;;;;;;;;;;25.90;73.50;;;;;;4946090;29;19925;-85
2021/08/20 12:19:56;;;;;;;;;;;25.90;77.50;;;;;;4947563;29;19922;-85
2021/08/20 12:22:32;;;;;;;;;;;26.10;89.50;;;;;;4948036;29;20021;-85
2021/08/20 12:24:57;;;;;;;;;;;25.90;74.40;;;;;;4952531;28;19914;-85
2021/08/20 12:27:25;;;;;;;;;;;25.50;73.50;;;;;;4947770;29;19924;-85
2021/08/20 12:30:00;;;;;;;;;;;25.80;74.50;;;;;;4946713;29;20463;-85
2021/08/20 12:32:36;;;;;;;;;;;25.90;73.30;;;;;;4953575;28;19922;-84
2021/08/20 12:35:01;;;;;;;;;;;25.90;74.40;;;;;;4944943;29;19988;-85
2021/08/20 12:37:27;;;;;;;;;;;25.90;74.50;;;;;;4950621;28;19922;-85
2021/08/20 12:40:10;;;;;;;;;;;25.50;75.00;;;;;;4946012;28;19920;-84
2021/08/20 12:42:42;;;;;;;;;;;25.50;76.90;;;;;;4950100;28;19914;-85
2021/08/20 12:45:08;;;;;;;;;;;25.20;76.70;;;;;;4945866;28;19949;-86
2021/08/20 12:47:34;;;;;;;;;;;25.40;76.90;;;;;;4945359;29;19941;-85
2021/08/20 12:50:04;;;;;;;;;;;25.40;76.70;;;;;;4947729;29;20389;-86
2021/08/20 12:52:30;;;;;;;;;;;25.40;76.00;;;;;;4946009;29;19925;-86
2021/08/20 12:54:55;;;;;;;;;;;25.30;77.80;;;;;;4945536;29;19914;-86
2021/08/20 12:57:21;;;;;;;;;;;25.30;76.50;;;;;;4944863;28;19930;-86
2021/08/20 12:59:46;;;;;;;;;;;25.50;78.80;;;;;;4945406;29;19915;-87
2021/08/20 13:02:13;;;;;;;;;;;25.50;77.60;;;;;;4945288;29;19925;-87
2021/08/20 13:04:38;;;;;;;;;;;25.50;77.10;;;;;;4946148;29;19925;-86
2021/08/20 13:07:04;;;;;;;;;;;25.60;78.80;;;;;;4945062;29;19914;-86
2021/08/20 13:09:29;;;;;;;;;;;25.50;78.90;;;;;;4944854;29;19915;-85
2021/08/20 13:11:55;;;;;;;;;;;25.40;76.60;;;;;;4943932;29;19914;-86
2021/08/20 13:14:21;;;;;;;;;;;25.20;76.90;;;;;;4943929;29;19961;-85
2021/08/20 13:16:47;;;;;;;;;;;25.40;80.40;;;;;;4945353;29;20468;-86
2021/08/20 13:19:13;;;;;;;;;;;25.30;78.30;;;;;;4947004;28;20010;-85
2021/08/20 13:21:38;;;;;;;;;;;25.50;79.70;;;;;;4944901;29;19969;-85
2021/08/20 13:24:04;;;;;;;;;;;25.40;79.80;;;;;;4945337;29;19918;-85
2021/08/20 13:26:30;;;;;;;;;;;25.40;80.90;;;;;;4945221;29;19914;-85
2021/08/20 13:28:55;;;;;;;;;;;25.30;79.80;;;;;;4946933;29;19914;-86
2021/08/20 13:31:21;;;;;;;;;;;25.20;79.10;;;;;;4944503;29;19948;-85
2021/08/20 13:33:46;;;;;;;;;;;25.00;79.40;;;;;;4943469;28;19914;-85
2021/08/20 13:36:12;;;;;;;;;;;24.90;79.50;;;;;;4943000;29;19918;-86
2021/08/20 13:38:38;;;;;;;;;;;25.00;82.80;;;;;;4940417;29;19922;-86
2021/08/20 13:41:04;;;;;;;;;;;25.20;82.70;;;;;;4945494;29;20371;-86
2021/08/20 13:43:32;;;;;;;;;;;25.10;82.10;;;;;;4944706;29;20325;-85
2021/08/20 13:45:59;;;;;;;;;;;24.90;80.70;;;;;;4943803;29;19921;-85
2021/08/20 13:48:24;;;;;;;;;;;24.70;81.60;;;;;;4943355;29;20143;-85
2021/08/20 13:50:50;;;;;;;;;;;24.60;83.10;;;;;;4945526;29;20020;-85
2021/08/20 13:53:15;;;;;;;;;;;24.80;84.20;;;;;;4945733;29;19914;-85
2021/08/20 13:55:41;;;;;;;;;;;24.90;83.60;;;;;;4946285;29;20838;-86
2021/08/20 13:58:07;;;;;;;;;;;24.80;82.70;;;;;;4945080;29;19922;-86
2021/08/20 14:00:33;;;;;;;;;;;24.70;83.70;;;;;;4944050;29;19921;-85
2021/08/20 14:02:59;;;;;;;;;;;24.70;85.30;;;;;;4943973;29;20019;-86
2021/08/20 14:05:26;;;;;;;;;;;24.70;85.00;;;;;;4943718;29;20009;-86
2021/08/20 14:07:51;;;;;;;;;;;24.80;83.90;;;;;;4944967;28;20001;-85
2021/08/20 14:10:17;;;;;;;;;;;24.60;84.40;;;;;;4943055;29;20399;-86
2021/08/20 14:12:42;;;;;;;;;;;24.70;82.40;;;;;;4943945;29;19915;-85
2021/08/20 14:15:08;;;;;;;;;;;24.50;85.10;;;;;;4944211;28;19976;-86